Au Gres, MI

9:23 PM EST on February 10, 2016 (GMT -0500)
Pt. Lookout | | Change Station
CLOSE
Current Station
Personal Weather Station
Location: Au Gres, MI
Elevation: 610 ft
Nearby Weather Stations

Elev 610 ft 44.05 °N, 83.58 °W | Updated 1 minute ago

Overcast
Overcast
7.8 °F
Feels Like 8 °F
N
0.0
Wind Variable Wind from WNW
Gusts 0.0 mph

Today
High -- | Low -- °F
--% Chance of Precip.
Yesterday
High -- | Low -- °F
Precip. -- in
Pressure 29.94 in
Visibility 10.0 miles
Clouds Mostly Cloudy 4300 ft
Overcast 8500 ft
Windchill 8 °F
Dew Point 3 °F
Humidity 80%
Rainfall 0.00 in
Snow Depth Not available.
7:41 AM 5:56 PM
Waxing Crescent, 8% visible
METAR KOSC 110214Z AUTO 29009KT 10SM BKN043 OVC085 M13/M18 A2994 RMK AO2 T11311183
Pressure 29.94 in
Visibility 10.0 miles
Clouds Mostly Cloudy 4300 ft
Overcast 8500 ft
Windchill 8 °F
Dew Point 3 °F
Humidity 80%
Rainfall 0.00 in
Snow Depth Not available.
7:41 AM 5:56 PM
Waxing Crescent, 8% visible
METAR KOSC 110214Z AUTO 29009KT 10SM BKN043 OVC085 M13/M18 A2994 RMK AO2 T11311183

10-Day Weather Forecast

Almanac

Astronomy

Feb. 10, 2016 Rise Set
Actual Time
Civil Twilight
Nautical Twilight
Astronomical Twilight
Moon
Length of Visible Light
Length of Day
Tomorrow will be .
, % of the Moon is Illuminated

Today's Extremes

State Highs State Lows

Community

WunderPhotos

Upload Photos

1,891,984 photos uploaded!

WunderBlog® & News

Nearby

Air Quality

  Air Quality AQ Index Pollutant
Not available.

Snow Depth

Station Depth Elevation

Earthquake Activity

City Distance Mag. Time & Date
Minimum magnitude displayed is 2.5.

Coastal Water Temperatures

Place Temperature

Stations

Nearby Weather Stations

Station Location Temp. Windchill Dew Point Humidity Wind Precip. Elev Updated Type
                   

Watches & Warnings

There are currently no watches in effect.